sensor_id;sensor_type;location;lat;lon;timestamp;P1;durP1;ratioP1;P2;durP2;ratioP2
40116;SDS011;25829;50.228;18.936;2022-10-15T00:01:24;64.50;;;37.10;;
40116;SDS011;25829;50.228;18.936;2022-10-15T00:04:25;78.27;;;42.07;;
40116;SDS011;25829;50.228;18.936;2022-10-15T00:07:26;66.47;;;40.27;;
40116;SDS011;25829;50.228;18.936;2022-10-15T00:10:28;59.77;;;38.00;;
40116;SDS011;25829;50.228;18.936;2022-10-15T00:13:29;65.67;;;37.87;;
40116;SDS011;25829;50.228;18.936;2022-10-15T00:16:29;53.43;;;35.23;;
40116;SDS011;25829;50.228;18.936;2022-10-15T00:19:31;52.83;;;32.50;;
40116;SDS011;25829;50.228;18.936;2022-10-15T00:22:32;58.63;;;34.53;;
40116;SDS011;25829;50.228;18.936;2022-10-15T00:25:33;61.10;;;39.57;;
40116;SDS011;25829;50.228;18.936;2022-10-15T00:28:34;62.20;;;39.10;;
40116;SDS011;25829;50.228;18.936;2022-10-15T00:31:35;63.17;;;39.80;;
40116;SDS011;25829;50.228;18.936;2022-10-15T00:34:35;59.73;;;38.07;;
40116;SDS011;25829;50.228;18.936;2022-10-15T00:37:36;62.13;;;38.00;;
40116;SDS011;25829;50.228;18.936;2022-10-15T00:40:39;55.33;;;36.17;;
40116;SDS011;25829;50.228;18.936;2022-10-15T00:43:45;62.57;;;38.43;;
40116;SDS011;25829;50.228;18.936;2022-10-15T00:50:23;60.70;;;37.10;;
40116;SDS011;25829;50.228;18.936;2022-10-15T00:53:26;59.33;;;35.93;;
40116;SDS011;25829;50.228;18.936;2022-10-15T00:56:27;62.40;;;36.63;;
40116;SDS011;25829;50.228;18.936;2022-10-15T00:59:32;57.50;;;37.50;;
40116;SDS011;25829;50.228;18.936;2022-10-15T01:02:36;56.87;;;35.60;;
40116;SDS011;25829;50.228;18.936;2022-10-15T01:05:37;59.90;;;35.67;;
40116;SDS011;25829;50.228;18.936;2022-10-15T01:08:42;61.73;;;35.50;;
40116;SDS011;25829;50.228;18.936;2022-10-15T01:11:44;57.90;;;34.93;;
40116;SDS011;25829;50.228;18.936;2022-10-15T01:18:23;54.23;;;35.13;;
40116;SDS011;25829;50.228;18.936;2022-10-15T01:21:33;55.90;;;34.60;;
40116;SDS011;25829;50.228;18.936;2022-10-15T01:35:03;49.80;;;32.33;;
40116;SDS011;25829;50.228;18.936;2022-10-15T01:38:54;50.97;;;33.00;;
40116;SDS011;25829;50.228;18.936;2022-10-15T01:41:51;50.67;;;32.87;;
40116;SDS011;25829;50.228;18.936;2022-10-15T01:44:58;53.53;;;34.47;;
40116;SDS011;25829;50.228;18.936;2022-10-15T01:48:18;52.00;;;33.13;;
40116;SDS011;25829;50.228;18.936;2022-10-15T01:51:21;50.10;;;32.23;;
40116;SDS011;25829;50.228;18.936;2022-10-15T01:54:25;51.87;;;32.73;;
40116;SDS011;25829;50.228;18.936;2022-10-15T01:57:27;56.40;;;34.57;;
40116;SDS011;25829;50.228;18.936;2022-10-15T02:00:32;55.57;;;34.70;;
40116;SDS011;25829;50.228;18.936;2022-10-15T02:03:46;58.83;;;36.70;;
40116;SDS011;25829;50.228;18.936;2022-10-15T02:06:51;56.47;;;35.23;;
40116;SDS011;25829;50.228;18.936;2022-10-15T02:10:00;55.40;;;34.83;;
40116;SDS011;25829;50.228;18.936;2022-10-15T02:13:30;66.80;;;35.37;;
40116;SDS011;25829;50.228;18.936;2022-10-15T02:17:02;52.57;;;34.07;;
40116;SDS011;25829;50.228;18.936;2022-10-15T02:20:12;50.57;;;32.43;;
40116;SDS011;25829;50.228;18.936;2022-10-15T02:23:23;56.23;;;32.40;;
40116;SDS011;25829;50.228;18.936;2022-10-15T02:26:33;45.53;;;30.07;;
40116;SDS011;25829;50.228;18.936;2022-10-15T02:29:35;48.70;;;30.43;;
40116;SDS011;25829;50.228;18.936;2022-10-15T02:32:38;48.17;;;32.00;;
40116;SDS011;25829;50.228;18.936;2022-10-15T02:35:41;48.73;;;31.43;;
40116;SDS011;25829;50.228;18.936;2022-10-15T02:38:43;52.40;;;31.73;;
40116;SDS011;25829;50.228;18.936;2022-10-15T02:41:45;49.53;;;31.87;;
40116;SDS011;25829;50.228;18.936;2022-10-15T02:44:48;49.40;;;31.53;;
40116;SDS011;25829;50.228;18.936;2022-10-15T02:47:49;44.60;;;30.47;;
40116;SDS011;25829;50.228;18.936;2022-10-15T02:50:51;41.67;;;30.07;;
40116;SDS011;25829;50.228;18.936;2022-10-15T02:53:52;45.60;;;29.37;;
40116;SDS011;25829;50.228;18.936;2022-10-15T02:56:53;43.67;;;30.73;;
40116;SDS011;25829;50.228;18.936;2022-10-15T02:59:55;42.53;;;29.17;;
40116;SDS011;25829;50.228;18.936;2022-10-15T03:02:55;45.50;;;29.77;;
40116;SDS011;25829;50.228;18.936;2022-10-15T03:05:56;41.90;;;28.03;;
40116;SDS011;25829;50.228;18.936;2022-10-15T03:08:58;45.87;;;29.27;;
40116;SDS011;25829;50.228;18.936;2022-10-15T03:11:59;40.60;;;27.67;;
40116;SDS011;25829;50.228;18.936;2022-10-15T03:15:00;42.37;;;28.53;;
40116;SDS011;25829;50.228;18.936;2022-10-15T03:18:02;40.23;;;28.07;;
40116;SDS011;25829;50.228;18.936;2022-10-15T03:21:04;44.23;;;28.20;;
40116;SDS011;25829;50.228;18.936;2022-10-15T03:24:06;46.27;;;30.40;;
40116;SDS011;25829;50.228;18.936;2022-10-15T03:27:07;43.30;;;28.80;;
40116;SDS011;25829;50.228;18.936;2022-10-15T03:30:08;42.13;;;29.03;;
40116;SDS011;25829;50.228;18.936;2022-10-15T03:33:12;43.30;;;29.60;;
40116;SDS011;25829;50.228;18.936;2022-10-15T03:36:14;44.20;;;29.20;;
40116;SDS011;25829;50.228;18.936;2022-10-15T03:39:15;43.60;;;28.90;;
40116;SDS011;25829;50.228;18.936;2022-10-15T03:42:15;45.40;;;29.73;;
40116;SDS011;25829;50.228;18.936;2022-10-15T03:45:19;42.80;;;27.87;;
40116;SDS011;25829;50.228;18.936;2022-10-15T03:48:26;42.27;;;28.10;;
40116;SDS011;25829;50.228;18.936;2022-10-15T03:51:27;39.30;;;27.77;;
40116;SDS011;25829;50.228;18.936;2022-10-15T03:54:36;40.63;;;27.37;;
40116;SDS011;25829;50.228;18.936;2022-10-15T03:57:37;42.50;;;26.53;;
40116;SDS011;25829;50.228;18.936;2022-10-15T04:00:40;36.90;;;26.07;;
40116;SDS011;25829;50.228;18.936;2022-10-15T04:03:44;39.17;;;26.27;;
40116;SDS011;25829;50.228;18.936;2022-10-15T04:06:48;38.63;;;26.03;;
40116;SDS011;25829;50.228;18.936;2022-10-15T04:09:51;38.30;;;25.93;;
40116;SDS011;25829;50.228;18.936;2022-10-15T04:12:59;37.00;;;25.47;;
40116;SDS011;25829;50.228;18.936;2022-10-15T04:16:02;38.07;;;26.23;;
40116;SDS011;25829;50.228;18.936;2022-10-15T04:19:04;35.70;;;23.90;;
40116;SDS011;25829;50.228;18.936;2022-10-15T04:22:05;37.30;;;24.27;;
40116;SDS011;25829;50.228;18.936;2022-10-15T04:25:14;34.90;;;23.67;;
40116;SDS011;25829;50.228;18.936;2022-10-15T04:28:16;35.70;;;24.10;;
40116;SDS011;25829;50.228;18.936;2022-10-15T04:31:19;34.63;;;23.90;;
40116;SDS011;25829;50.228;18.936;2022-10-15T04:34:20;38.67;;;22.80;;
40116;SDS011;25829;50.228;18.936;2022-10-15T04:37:22;33.40;;;22.07;;
40116;SDS011;25829;50.228;18.936;2022-10-15T04:40:23;33.17;;;21.83;;
40116;SDS011;25829;50.228;18.936;2022-10-15T04:43:23;31.13;;;21.60;;
40116;SDS011;25829;50.228;18.936;2022-10-15T04:46:31;35.37;;;20.97;;
40116;SDS011;25829;50.228;18.936;2022-10-15T04:49:37;33.97;;;21.63;;
40116;SDS011;25829;50.228;18.936;2022-10-15T04:52:47;31.03;;;21.53;;
40116;SDS011;25829;50.228;18.936;2022-10-15T04:55:49;30.67;;;20.60;;
40116;SDS011;25829;50.228;18.936;2022-10-15T04:58:50;30.30;;;20.57;;
40116;SDS011;25829;50.228;18.936;2022-10-15T05:01:51;26.33;;;19.77;;
40116;SDS011;25829;50.228;18.936;2022-10-15T05:04:51;30.33;;;20.37;;
40116;SDS011;25829;50.228;18.936;2022-10-15T05:07:52;29.67;;;20.07;;
40116;SDS011;25829;50.228;18.936;2022-10-15T05:10:53;32.77;;;21.53;;
40116;SDS011;25829;50.228;18.936;2022-10-15T05:13:55;29.27;;;20.43;;
40116;SDS011;25829;50.228;18.936;2022-10-15T05:16:58;25.30;;;19.10;;
40116;SDS011;25829;50.228;18.936;2022-10-15T05:20:00;23.97;;;17.17;;
40116;SDS011;25829;50.228;18.936;2022-10-15T05:23:03;26.83;;;19.37;;
40116;SDS011;25829;50.228;18.936;2022-10-15T05:26:10;29.97;;;18.73;;
40116;SDS011;25829;50.228;18.936;2022-10-15T05:29:12;31.27;;;19.07;;
40116;SDS011;25829;50.228;18.936;2022-10-15T05:32:13;28.50;;;18.57;;
40116;SDS011;25829;50.228;18.936;2022-10-15T05:35:14;26.77;;;19.60;;
40116;SDS011;25829;50.228;18.936;2022-10-15T05:38:51;28.93;;;18.53;;
40116;SDS011;25829;50.228;18.936;2022-10-15T05:41:55;27.27;;;17.87;;
40116;SDS011;25829;50.228;18.936;2022-10-15T05:45:22;25.03;;;18.00;;
40116;SDS011;25829;50.228;18.936;2022-10-15T05:48:23;29.80;;;17.70;;
40116;SDS011;25829;50.228;18.936;2022-10-15T05:51:24;23.40;;;17.20;;
40116;SDS011;25829;50.228;18.936;2022-10-15T05:54:32;24.33;;;18.23;;
40116;SDS011;25829;50.228;18.936;2022-10-15T05:57:33;26.13;;;17.90;;
40116;SDS011;25829;50.228;18.936;2022-10-15T06:00:36;24.87;;;17.40;;
40116;SDS011;25829;50.228;18.936;2022-10-15T06:03:39;27.43;;;18.13;;
40116;SDS011;25829;50.228;18.936;2022-10-15T06:06:40;27.00;;;17.87;;
40116;SDS011;25829;50.228;18.936;2022-10-15T06:09:41;25.07;;;19.13;;
40116;SDS011;25829;50.228;18.936;2022-10-15T06:12:42;27.07;;;17.90;;
40116;SDS011;25829;50.228;18.936;2022-10-15T06:15:48;26.43;;;17.60;;
40116;SDS011;25829;50.228;18.936;2022-10-15T06:18:50;26.50;;;18.03;;
40116;SDS011;25829;50.228;18.936;2022-10-15T06:21:52;25.07;;;17.93;;
40116;SDS011;25829;50.228;18.936;2022-10-15T06:24:53;29.10;;;18.20;;
40116;SDS011;25829;50.228;18.936;2022-10-15T06:27:54;25.50;;;17.53;;
40116;SDS011;25829;50.228;18.936;2022-10-15T06:31:00;26.57;;;18.70;;
40116;SDS011;25829;50.228;18.936;2022-10-15T06:34:03;25.33;;;17.63;;
40116;SDS011;25829;50.228;18.936;2022-10-15T06:37:04;24.17;;;17.15;;
40116;SDS011;25829;50.228;18.936;2022-10-15T06:40:05;26.67;;;17.98;;
40116;SDS011;25829;50.228;18.936;2022-10-15T06:43:08;23.80;;;17.65;;
40116;SDS011;25829;50.228;18.936;2022-10-15T06:46:10;24.40;;;16.63;;
40116;SDS011;25829;50.228;18.936;2022-10-15T06:49:11;25.30;;;17.67;;
40116;SDS011;25829;50.228;18.936;2022-10-15T06:52:16;21.67;;;16.75;;
40116;SDS011;25829;50.228;18.936;2022-10-15T06:55:16;23.33;;;17.42;;
40116;SDS011;25829;50.228;18.936;2022-10-15T06:58:17;22.85;;;16.70;;
40116;SDS011;25829;50.228;18.936;2022-10-15T07:01:18;21.10;;;16.92;;
40116;SDS011;25829;50.228;18.936;2022-10-15T07:04:19;23.00;;;15.60;;
40116;SDS011;25829;50.228;18.936;2022-10-15T07:07:21;20.02;;;15.30;;
40116;SDS011;25829;50.228;18.936;2022-10-15T07:10:23;21.10;;;16.35;;
40116;SDS011;25829;50.228;18.936;2022-10-15T07:13:24;21.52;;;15.55;;
40116;SDS011;25829;50.228;18.936;2022-10-15T07:16:25;22.65;;;16.13;;
40116;SDS011;25829;50.228;18.936;2022-10-15T07:19:26;23.75;;;15.80;;
40116;SDS011;25829;50.228;18.936;2022-10-15T07:22:27;21.70;;;15.40;;
40116;SDS011;25829;50.228;18.936;2022-10-15T07:25:28;21.65;;;15.63;;
40116;SDS011;25829;50.228;18.936;2022-10-15T07:28:29;21.73;;;16.98;;
40116;SDS011;25829;50.228;18.936;2022-10-15T07:31:30;19.55;;;15.48;;
40116;SDS011;25829;50.228;18.936;2022-10-15T07:34:31;20.88;;;15.65;;
40116;SDS011;25829;50.228;18.936;2022-10-15T07:37:32;21.23;;;16.17;;
40116;SDS011;25829;50.228;18.936;2022-10-15T07:40:33;22.60;;;17.42;;
40116;SDS011;25829;50.228;18.936;2022-10-15T07:43:34;20.23;;;16.05;;
40116;SDS011;25829;50.228;18.936;2022-10-15T07:46:35;20.52;;;15.70;;
40116;SDS011;25829;50.228;18.936;2022-10-15T07:49:36;25.10;;;16.55;;
40116;SDS011;25829;50.228;18.936;2022-10-15T07:52:37;20.55;;;15.55;;
40116;SDS011;25829;50.228;18.936;2022-10-15T07:55:38;26.55;;;15.57;;
40116;SDS011;25829;50.228;18.936;2022-10-15T07:58:38;20.67;;;15.05;;
40116;SDS011;25829;50.228;18.936;2022-10-15T08:01:39;19.52;;;15.23;;
40116;SDS011;25829;50.228;18.936;2022-10-15T08:04:40;19.70;;;14.23;;
40116;SDS011;25829;50.228;18.936;2022-10-15T08:07:41;22.77;;;15.50;;
40116;SDS011;25829;50.228;18.936;2022-10-15T08:10:44;20.88;;;14.35;;
40116;SDS011;25829;50.228;18.936;2022-10-15T08:13:46;19.95;;;14.93;;
40116;SDS011;25829;50.228;18.936;2022-10-15T08:16:49;18.40;;;15.10;;
40116;SDS011;25829;50.228;18.936;2022-10-15T08:19:50;20.27;;;15.02;;
40116;SDS011;25829;50.228;18.936;2022-10-15T08:22:51;17.85;;;15.25;;
40116;SDS011;25829;50.228;18.936;2022-10-15T08:25:52;20.15;;;13.60;;
40116;SDS011;25829;50.228;18.936;2022-10-15T08:28:52;17.00;;;13.63;;
40116;SDS011;25829;50.228;18.936;2022-10-15T08:31:53;15.68;;;12.93;;
40116;SDS011;25829;50.228;18.936;2022-10-15T08:34:56;17.15;;;11.98;;
40116;SDS011;25829;50.228;18.936;2022-10-15T08:37:57;19.27;;;12.25;;
40116;SDS011;25829;50.228;18.936;2022-10-15T08:40:58;16.52;;;11.20;;
40116;SDS011;25829;50.228;18.936;2022-10-15T08:44:01;12.48;;;9.68;;
40116;SDS011;25829;50.228;18.936;2022-10-15T08:47:16;14.65;;;10.13;;
40116;SDS011;25829;50.228;18.936;2022-10-15T08:50:45;10.23;;;8.82;;
40116;SDS011;25829;50.228;18.936;2022-10-15T08:53:57;12.25;;;9.57;;
40116;SDS011;25829;50.228;18.936;2022-10-15T09:00:34;11.90;;;9.40;;
40116;SDS011;25829;50.228;18.936;2022-10-15T09:06:56;13.77;;;8.63;;
40116;SDS011;25829;50.228;18.936;2022-10-15T09:10:26;11.00;;;7.97;;
40116;SDS011;25829;50.228;18.936;2022-10-15T09:13:39;13.32;;;8.00;;
40116;SDS011;25829;50.228;18.936;2022-10-15T09:16:44;10.43;;;8.32;;
40116;SDS011;25829;50.228;18.936;2022-10-15T09:19:52;10.10;;;7.68;;
40116;SDS011;25829;50.228;18.936;2022-10-15T09:22:54;11.50;;;7.82;;
40116;SDS011;25829;50.228;18.936;2022-10-15T09:29:03;12.98;;;7.65;;
40116;SDS011;25829;50.228;18.936;2022-10-15T09:32:40;9.90;;;6.93;;
40116;SDS011;25829;50.228;18.936;2022-10-15T09:35:50;11.13;;;7.40;;
40116;SDS011;25829;50.228;18.936;2022-10-15T09:45:03;10.95;;;6.28;;
40116;SDS011;25829;50.228;18.936;2022-10-15T09:48:16;11.45;;;6.05;;
40116;SDS011;25829;50.228;18.936;2022-10-15T09:54:51;9.05;;;6.13;;
40116;SDS011;25829;50.228;18.936;2022-10-15T09:58:14;9.57;;;6.00;;
40116;SDS011;25829;50.228;18.936;2022-10-15T10:01:25;6.97;;;6.13;;
40116;SDS011;25829;50.228;18.936;2022-10-15T10:04:28;7.30;;;6.18;;
40116;SDS011;25829;50.228;18.936;2022-10-15T10:07:31;10.55;;;5.57;;
40116;SDS011;25829;50.228;18.936;2022-10-15T10:10:34;9.05;;;6.13;;
40116;SDS011;25829;50.228;18.936;2022-10-15T10:23:30;9.43;;;7.18;;
40116;SDS011;25829;50.228;18.936;2022-10-15T10:26:34;7.20;;;5.90;;
40116;SDS011;25829;50.228;18.936;2022-10-15T10:29:36;7.45;;;5.63;;
40116;SDS011;25829;50.228;18.936;2022-10-15T10:32:40;7.15;;;6.32;;
40116;SDS011;25829;50.228;18.936;2022-10-15T10:35:46;11.05;;;5.88;;
40116;SDS011;25829;50.228;18.936;2022-10-15T10:45:18;7.32;;;5.57;;
40116;SDS011;25829;50.228;18.936;2022-10-15T10:48:24;7.72;;;6.10;;
40116;SDS011;25829;50.228;18.936;2022-10-15T10:51:27;7.05;;;5.45;;
40116;SDS011;25829;50.228;18.936;2022-10-15T10:54:30;9.55;;;6.15;;
40116;SDS011;25829;50.228;18.936;2022-10-15T11:00:54;11.18;;;6.45;;
40116;SDS011;25829;50.228;18.936;2022-10-15T11:03:56;7.28;;;5.97;;
40116;SDS011;25829;50.228;18.936;2022-10-15T11:10:04;8.27;;;6.32;;
40116;SDS011;25829;50.228;18.936;2022-10-15T11:20:04;7.68;;;6.32;;
40116;SDS011;25829;50.228;18.936;2022-10-15T11:30:35;9.55;;;5.97;;
40116;SDS011;25829;50.228;18.936;2022-10-15T11:54:13;7.53;;;5.32;;
40116;SDS011;25829;50.228;18.936;2022-10-15T11:57:31;11.60;;;5.88;;
40116;SDS011;25829;50.228;18.936;2022-10-15T12:00:38;8.65;;;5.75;;
40116;SDS011;25829;50.228;18.936;2022-10-15T12:06:58;9.68;;;6.03;;
40116;SDS011;25829;50.228;18.936;2022-10-15T12:20:11;12.63;;;9.18;;
40116;SDS011;25829;50.228;18.936;2022-10-15T12:23:25;37.13;;;28.08;;
40116;SDS011;25829;50.228;18.936;2022-10-15T12:26:38;38.25;;;28.23;;
40116;SDS011;25829;50.228;18.936;2022-10-15T12:29:39;45.53;;;28.23;;
40116;SDS011;25829;50.228;18.936;2022-10-15T12:32:43;12.20;;;8.50;;
40116;SDS011;25829;50.228;18.936;2022-10-15T12:35:53;88.90;;;53.33;;
40116;SDS011;25829;50.228;18.936;2022-10-15T12:42:14;79.65;;;52.13;;
40116;SDS011;25829;50.228;18.936;2022-10-15T12:45:37;50.10;;;31.80;;
40116;SDS011;25829;50.228;18.936;2022-10-15T12:48:44;49.88;;;28.48;;
40116;SDS011;25829;50.228;18.936;2022-10-15T12:51:46;37.67;;;27.30;;
40116;SDS011;25829;50.228;18.936;2022-10-15T12:54:49;21.77;;;15.25;;
40116;SDS011;25829;50.228;18.936;2022-10-15T12:57:52;21.38;;;14.32;;
40116;SDS011;25829;50.228;18.936;2022-10-15T13:00:55;22.30;;;15.68;;
40116;SDS011;25829;50.228;18.936;2022-10-15T13:03:56;83.82;;;57.75;;
40116;SDS011;25829;50.228;18.936;2022-10-15T13:07:02;14.90;;;9.57;;
40116;SDS011;25829;50.228;18.936;2022-10-15T13:10:03;17.85;;;10.95;;
40116;SDS011;25829;50.228;18.936;2022-10-15T13:13:18;19.17;;;14.75;;
40116;SDS011;25829;50.228;18.936;2022-10-15T13:16:23;55.00;;;37.33;;
40116;SDS011;25829;50.228;18.936;2022-10-15T13:19:28;10.82;;;8.07;;
40116;SDS011;25829;50.228;18.936;2022-10-15T13:22:34;10.55;;;8.10;;
40116;SDS011;25829;50.228;18.936;2022-10-15T13:25:35;44.78;;;21.90;;
40116;SDS011;25829;50.228;18.936;2022-10-15T13:28:37;13.57;;;7.90;;
40116;SDS011;25829;50.228;18.936;2022-10-15T13:31:40;6.22;;;5.63;;
40116;SDS011;25829;50.228;18.936;2022-10-15T13:34:44;9.65;;;6.10;;
40116;SDS011;25829;50.228;18.936;2022-10-15T13:37:45;8.60;;;5.70;;
40116;SDS011;25829;50.228;18.936;2022-10-15T13:40:49;11.77;;;8.18;;
40116;SDS011;25829;50.228;18.936;2022-10-15T13:43:51;21.65;;;15.23;;
40116;SDS011;25829;50.228;18.936;2022-10-15T13:46:57;12.43;;;9.60;;
40116;SDS011;25829;50.228;18.936;2022-10-15T13:56:33;8.38;;;5.25;;
40116;SDS011;25829;50.228;18.936;2022-10-15T13:59:34;8.07;;;6.65;;
40116;SDS011;25829;50.228;18.936;2022-10-15T14:02:35;12.35;;;7.32;;
40116;SDS011;25829;50.228;18.936;2022-10-15T14:05:36;11.68;;;8.32;;
40116;SDS011;25829;50.228;18.936;2022-10-15T14:08:36;9.95;;;7.88;;
40116;SDS011;25829;50.228;18.936;2022-10-15T14:11:37;21.25;;;15.55;;
40116;SDS011;25829;50.228;18.936;2022-10-15T14:14:40;13.38;;;8.85;;
40116;SDS011;25829;50.228;18.936;2022-10-15T14:17:48;11.50;;;7.60;;
40116;SDS011;25829;50.228;18.936;2022-10-15T14:20:50;12.95;;;8.85;;
40116;SDS011;25829;50.228;18.936;2022-10-15T14:23:52;11.65;;;9.10;;
40116;SDS011;25829;50.228;18.936;2022-10-15T14:27:19;11.55;;;8.68;;
40116;SDS011;25829;50.228;18.936;2022-10-15T14:30:31;12.23;;;8.18;;
40116;SDS011;25829;50.228;18.936;2022-10-15T14:36:40;12.65;;;8.80;;
40116;SDS011;25829;50.228;18.936;2022-10-15T14:39:41;10.00;;;7.10;;
40116;SDS011;25829;50.228;18.936;2022-10-15T14:42:59;14.55;;;10.25;;
40116;SDS011;25829;50.228;18.936;2022-10-15T14:46:03;13.50;;;8.73;;
40116;SDS011;25829;50.228;18.936;2022-10-15T14:49:15;12.65;;;10.43;;
40116;SDS011;25829;50.228;18.936;2022-10-15T14:52:20;10.68;;;7.57;;
40116;SDS011;25829;50.228;18.936;2022-10-15T14:58:49;18.67;;;11.85;;
40116;SDS011;25829;50.228;18.936;2022-10-15T15:01:53;11.23;;;8.43;;
40116;SDS011;25829;50.228;18.936;2022-10-15T15:05:06;14.88;;;11.15;;
40116;SDS011;25829;50.228;18.936;2022-10-15T15:08:23;14.93;;;10.57;;
40116;SDS011;25829;50.228;18.936;2022-10-15T15:11:25;22.50;;;14.85;;
40116;SDS011;25829;50.228;18.936;2022-10-15T15:14:26;17.15;;;11.20;;
40116;SDS011;25829;50.228;18.936;2022-10-15T15:17:27;12.85;;;10.15;;
40116;SDS011;25829;50.228;18.936;2022-10-15T15:20:29;15.25;;;10.35;;
40116;SDS011;25829;50.228;18.936;2022-10-15T15:23:30;10.38;;;8.60;;
40116;SDS011;25829;50.228;18.936;2022-10-15T15:26:32;16.80;;;11.90;;
40116;SDS011;25829;50.228;18.936;2022-10-15T15:29:32;13.65;;;10.65;;
40116;SDS011;25829;50.228;18.936;2022-10-15T15:32:33;17.63;;;11.38;;
40116;SDS011;25829;50.228;18.936;2022-10-15T15:35:58;15.18;;;8.95;;
40116;SDS011;25829;50.228;18.936;2022-10-15T15:38:59;14.25;;;10.77;;
40116;SDS011;25829;50.228;18.936;2022-10-15T15:42:00;13.18;;;9.57;;
40116;SDS011;25829;50.228;18.936;2022-10-15T15:45:01;13.77;;;9.95;;
40116;SDS011;25829;50.228;18.936;2022-10-15T15:48:01;17.95;;;10.10;;
40116;SDS011;25829;50.228;18.936;2022-10-15T15:51:24;16.25;;;8.40;;
40116;SDS011;25829;50.228;18.936;2022-10-15T15:54:28;11.57;;;9.77;;
40116;SDS011;25829;50.228;18.936;2022-10-15T15:57:28;15.18;;;10.23;;
40116;SDS011;25829;50.228;18.936;2022-10-15T16:00:29;12.82;;;9.68;;
40116;SDS011;25829;50.228;18.936;2022-10-15T16:03:30;14.50;;;10.32;;
40116;SDS011;25829;50.228;18.936;2022-10-15T16:06:31;14.93;;;12.27;;
40116;SDS011;25829;50.228;18.936;2022-10-15T16:09:31;14.07;;;10.25;;
40116;SDS011;25829;50.228;18.936;2022-10-15T16:12:32;13.57;;;9.85;;
40116;SDS011;25829;50.228;18.936;2022-10-15T16:15:33;19.40;;;11.25;;
40116;SDS011;25829;50.228;18.936;2022-10-15T16:18:34;19.63;;;11.32;;
40116;SDS011;25829;50.228;18.936;2022-10-15T16:21:34;16.23;;;11.55;;
40116;SDS011;25829;50.228;18.936;2022-10-15T16:24:35;16.50;;;12.35;;
40116;SDS011;25829;50.228;18.936;2022-10-15T16:27:36;19.85;;;15.10;;
40116;SDS011;25829;50.228;18.936;2022-10-15T16:30:37;20.38;;;15.13;;
40116;SDS011;25829;50.228;18.936;2022-10-15T16:33:38;22.10;;;15.50;;
40116;SDS011;25829;50.228;18.936;2022-10-15T16:36:38;18.23;;;13.15;;
40116;SDS011;25829;50.228;18.936;2022-10-15T16:39:39;14.32;;;10.25;;
40116;SDS011;25829;50.228;18.936;2022-10-15T16:42:40;14.55;;;10.02;;
40116;SDS011;25829;50.228;18.936;2022-10-15T16:45:41;15.13;;;11.00;;
40116;SDS011;25829;50.228;18.936;2022-10-15T16:48:42;17.95;;;10.93;;
40116;SDS011;25829;50.228;18.936;2022-10-15T16:51:42;18.50;;;12.30;;
40116;SDS011;25829;50.228;18.936;2022-10-15T16:54:43;25.20;;;16.15;;
40116;SDS011;25829;50.228;18.936;2022-10-15T16:57:44;28.95;;;18.45;;
40116;SDS011;25829;50.228;18.936;2022-10-15T17:00:44;25.63;;;15.30;;
40116;SDS011;25829;50.228;18.936;2022-10-15T17:03:45;21.65;;;15.52;;
40116;SDS011;25829;50.228;18.936;2022-10-15T17:06:47;26.95;;;19.25;;
40116;SDS011;25829;50.228;18.936;2022-10-15T17:09:48;18.33;;;14.02;;
40116;SDS011;25829;50.228;18.936;2022-10-15T17:12:48;25.40;;;17.85;;
40116;SDS011;25829;50.228;18.936;2022-10-15T17:15:49;16.33;;;11.68;;
40116;SDS011;25829;50.228;18.936;2022-10-15T17:18:50;21.05;;;15.20;;
40116;SDS011;25829;50.228;18.936;2022-10-15T17:21:51;32.95;;;22.50;;
40116;SDS011;25829;50.228;18.936;2022-10-15T17:24:54;51.63;;;33.65;;
40116;SDS011;25829;50.228;18.936;2022-10-15T17:27:55;24.50;;;18.10;;
40116;SDS011;25829;50.228;18.936;2022-10-15T17:31:00;22.83;;;14.70;;
40116;SDS011;25829;50.228;18.936;2022-10-15T17:34:03;25.92;;;20.75;;
40116;SDS011;25829;50.228;18.936;2022-10-15T17:37:06;22.90;;;17.35;;
40116;SDS011;25829;50.228;18.936;2022-10-15T17:40:07;24.80;;;17.55;;
40116;SDS011;25829;50.228;18.936;2022-10-15T17:43:08;23.23;;;17.00;;
40116;SDS011;25829;50.228;18.936;2022-10-15T17:46:11;27.65;;;18.83;;
40116;SDS011;25829;50.228;18.936;2022-10-15T17:49:13;23.95;;;17.17;;
40116;SDS011;25829;50.228;18.936;2022-10-15T17:52:17;29.42;;;18.40;;
40116;SDS011;25829;50.228;18.936;2022-10-15T17:55:18;28.50;;;18.02;;
40116;SDS011;25829;50.228;18.936;2022-10-15T17:58:19;36.10;;;22.52;;
40116;SDS011;25829;50.228;18.936;2022-10-15T18:01:30;38.00;;;24.35;;
40116;SDS011;25829;50.228;18.936;2022-10-15T18:04:33;33.85;;;21.58;;
40116;SDS011;25829;50.228;18.936;2022-10-15T18:07:34;32.15;;;21.88;;
40116;SDS011;25829;50.228;18.936;2022-10-15T18:10:35;29.88;;;20.75;;
40116;SDS011;25829;50.228;18.936;2022-10-15T18:13:36;26.08;;;17.80;;
40116;SDS011;25829;50.228;18.936;2022-10-15T18:16:37;23.20;;;17.05;;
40116;SDS011;25829;50.228;18.936;2022-10-15T18:19:38;27.05;;;18.83;;
40116;SDS011;25829;50.228;18.936;2022-10-15T18:22:38;30.15;;;19.08;;
40116;SDS011;25829;50.228;18.936;2022-10-15T18:25:39;28.80;;;17.50;;
40116;SDS011;25829;50.228;18.936;2022-10-15T18:28:41;37.45;;;25.48;;
40116;SDS011;25829;50.228;18.936;2022-10-15T18:31:42;28.23;;;20.35;;
40116;SDS011;25829;50.228;18.936;2022-10-15T18:34:43;26.05;;;19.15;;
40116;SDS011;25829;50.228;18.936;2022-10-15T18:37:44;27.73;;;18.02;;
40116;SDS011;25829;50.228;18.936;2022-10-15T18:40:45;27.70;;;18.25;;
40116;SDS011;25829;50.228;18.936;2022-10-15T18:43:50;24.25;;;18.05;;
40116;SDS011;25829;50.228;18.936;2022-10-15T18:46:51;22.10;;;17.35;;
40116;SDS011;25829;50.228;18.936;2022-10-15T18:49:52;29.35;;;21.60;;
40116;SDS011;25829;50.228;18.936;2022-10-15T18:52:52;32.25;;;20.80;;
40116;SDS011;25829;50.228;18.936;2022-10-15T18:55:53;24.35;;;16.65;;
40116;SDS011;25829;50.228;18.936;2022-10-15T18:58:54;28.65;;;17.70;;
40116;SDS011;25829;50.228;18.936;2022-10-15T19:01:55;25.08;;;17.80;;
40116;SDS011;25829;50.228;18.936;2022-10-15T19:04:56;27.55;;;19.98;;
40116;SDS011;25829;50.228;18.936;2022-10-15T19:07:57;35.88;;;22.88;;
40116;SDS011;25829;50.228;18.936;2022-10-15T19:11:01;37.28;;;23.45;;
40116;SDS011;25829;50.228;18.936;2022-10-15T19:14:06;39.03;;;23.48;;
40116;SDS011;25829;50.228;18.936;2022-10-15T19:17:07;39.38;;;26.90;;
40116;SDS011;25829;50.228;18.936;2022-10-15T19:20:08;48.20;;;30.52;;
40116;SDS011;25829;50.228;18.936;2022-10-15T19:23:09;50.85;;;33.15;;
40116;SDS011;25829;50.228;18.936;2022-10-15T19:26:11;44.60;;;31.38;;
40116;SDS011;25829;50.228;18.936;2022-10-15T19:29:12;38.00;;;26.58;;
40116;SDS011;25829;50.228;18.936;2022-10-15T19:32:14;33.22;;;24.80;;
40116;SDS011;25829;50.228;18.936;2022-10-15T19:35:14;38.80;;;24.85;;
40116;SDS011;25829;50.228;18.936;2022-10-15T19:38:15;36.30;;;24.63;;
40116;SDS011;25829;50.228;18.936;2022-10-15T19:41:16;36.35;;;23.90;;
40116;SDS011;25829;50.228;18.936;2022-10-15T19:44:18;39.55;;;23.33;;
40116;SDS011;25829;50.228;18.936;2022-10-15T19:47:24;34.38;;;25.33;;
40116;SDS011;25829;50.228;18.936;2022-10-15T19:50:24;42.58;;;28.40;;